createdAt,value
2022-09-06T00:01:16.118Z,23.50
2022-09-06T00:03:45.751Z,23.48
2022-09-06T00:06:15.971Z,23.47
2022-09-06T00:08:45.571Z,23.47
2022-09-06T00:11:14.398Z,23.45
2022-09-06T00:13:42.159Z,23.50
2022-09-06T00:16:12.445Z,23.51
2022-09-06T00:18:40.700Z,23.50
2022-09-06T00:21:19.579Z,23.41
2022-09-06T00:23:47.543Z,23.51
2022-09-06T00:26:16.007Z,23.53
2022-09-06T00:28:44.040Z,23.49
2022-09-06T00:31:12.992Z,23.30
2022-09-06T00:33:41.133Z,23.20
2022-09-06T00:36:09.542Z,22.90
2022-09-06T00:38:39.313Z,22.41
2022-09-06T00:41:09.212Z,22.24
2022-09-06T00:43:37.345Z,22.09
2022-09-06T00:46:07.265Z,21.93
2022-09-06T00:48:36.431Z,21.81
2022-09-06T00:51:09.468Z,21.89
2022-09-06T00:53:38.818Z,21.87
2022-09-06T00:56:07.675Z,21.77
2022-09-06T00:58:36.127Z,21.83
2022-09-06T01:01:04.139Z,21.87
2022-09-06T01:03:32.416Z,21.86
2022-09-06T01:06:10.845Z,21.84
2022-09-06T01:08:50.487Z,21.77
2022-09-06T01:11:36.537Z,21.73
2022-09-06T01:14:16.462Z,21.63
2022-09-06T01:16:53.013Z,21.64
2022-09-06T01:20:09.566Z,21.69
2022-09-06T01:23:04.644Z,21.71
2022-09-06T01:25:41.018Z,21.70
2022-09-06T01:28:26.763Z,21.68
2022-09-06T01:31:04.902Z,21.68
2022-09-06T01:33:39.375Z,21.68
2022-09-06T01:36:11.899Z,21.69
2022-09-06T01:38:39.737Z,21.67
2022-09-06T01:41:07.512Z,21.71
2022-09-06T01:43:40.944Z,21.70
2022-09-06T01:46:17.019Z,21.71
2022-09-06T01:49:04.375Z,21.73
2022-09-06T01:51:44.050Z,21.71
2022-09-06T01:54:24.587Z,21.75
2022-09-06T01:57:05.267Z,21.75
2022-09-06T02:00:00.174Z,21.69
2022-09-06T02:02:38.315Z,21.66
2022-09-06T02:05:10.523Z,21.59
2022-09-06T02:07:40.484Z,21.58
2022-09-06T02:10:12.886Z,21.64
2022-09-06T02:12:44.114Z,21.48
2022-09-06T02:15:18.125Z,21.61
2022-09-06T02:17:53.731Z,21.63
2022-09-06T02:20:25.762Z,21.65
2022-09-06T02:22:57.321Z,21.63
2022-09-06T02:25:28.475Z,21.57
2022-09-06T02:27:56.724Z,21.59
2022-09-06T02:30:26.183Z,21.61
2022-09-06T02:32:59.607Z,21.62
2022-09-06T02:35:27.671Z,21.61
2022-09-06T02:37:56.336Z,21.58
2022-09-06T02:40:24.565Z,21.55
2022-09-06T02:42:53.483Z,21.50
2022-09-06T02:45:21.289Z,21.53
2022-09-06T02:47:50.459Z,21.52
2022-09-06T02:50:18.229Z,21.46
2022-09-06T02:52:46.051Z,21.44
2022-09-06T02:55:13.873Z,21.46
2022-09-06T02:57:41.715Z,21.49
2022-09-06T03:00:10.795Z,21.51
2022-09-06T03:02:38.680Z,21.49
2022-09-06T03:05:08.665Z,21.45
2022-09-06T03:07:36.475Z,21.48
2022-09-06T03:10:05.046Z,21.48
2022-09-06T03:12:32.948Z,21.51
2022-09-06T03:15:00.772Z,21.51
2022-09-06T03:17:28.603Z,21.53
2022-09-06T03:19:56.391Z,21.51
2022-09-06T03:22:25.655Z,21.53
2022-09-06T03:24:53.617Z,21.46
2022-09-06T03:27:21.434Z,21.47
2022-09-06T03:29:49.244Z,21.45
2022-09-06T03:32:17.187Z,21.39
2022-09-06T03:34:44.987Z,21.50
2022-09-06T03:37:12.843Z,21.40
2022-09-06T03:39:42.051Z,21.48
2022-09-06T03:42:09.947Z,21.51
2022-09-06T03:44:37.831Z,21.52
2022-09-06T03:47:06.133Z,21.46
2022-09-06T03:49:33.971Z,21.45
2022-09-06T03:52:02.052Z,21.50
2022-09-06T03:54:29.900Z,21.47
2022-09-06T03:56:59.455Z,21.47
2022-09-06T03:59:27.639Z,21.41
2022-09-06T04:01:55.505Z,21.39
2022-09-06T04:04:23.312Z,21.36
2022-09-06T04:06:51.257Z,21.31
2022-09-06T04:09:19.095Z,21.30
2022-09-06T04:11:46.921Z,21.30
2022-09-06T04:14:16.512Z,21.23
2022-09-06T04:16:44.464Z,21.22
2022-09-06T04:19:12.373Z,21.19
2022-09-06T04:21:40.207Z,21.18
2022-09-06T04:24:08.403Z,21.08
2022-09-06T04:26:36.546Z,21.14
2022-09-06T04:29:04.447Z,21.12
2022-09-06T04:31:33.725Z,21.01
2022-09-06T04:34:01.564Z,21.04
2022-09-06T04:36:29.871Z,21.08
2022-09-06T04:38:57.663Z,21.08
2022-09-06T04:41:25.419Z,20.98
2022-09-06T04:43:53.338Z,20.95
2022-09-06T04:46:24.036Z,20.96
2022-09-06T04:48:54.564Z,20.92
2022-09-06T04:51:23.172Z,20.95
2022-09-06T04:53:51.304Z,20.95
2022-09-06T04:56:22.020Z,20.91
2022-09-06T04:58:51.140Z,20.90
2022-09-06T05:01:20.352Z,20.90
2022-09-06T05:03:48.497Z,20.89
2022-09-06T05:06:22.959Z,20.85
2022-09-06T05:08:51.059Z,20.81
2022-09-06T05:11:19.687Z,20.80
2022-09-06T05:13:47.999Z,20.76
2022-09-06T05:16:16.041Z,20.83
2022-09-06T05:18:44.360Z,20.84
2022-09-06T05:21:12.177Z,20.84
2022-09-06T05:23:41.351Z,20.86
2022-09-06T05:26:09.299Z,20.85
2022-09-06T05:28:37.175Z,20.81
2022-09-06T05:31:09.734Z,20.83
2022-09-06T05:33:38.408Z,20.85
2022-09-06T05:36:07.795Z,20.84
2022-09-06T05:38:35.611Z,20.86
2022-09-06T05:41:04.901Z,20.89
2022-09-06T05:43:33.087Z,20.88
2022-09-06T05:46:00.984Z,20.87
2022-09-06T05:48:30.439Z,20.88
2022-09-06T05:51:02.456Z,20.86
2022-09-06T05:53:35.206Z,20.85
2022-09-06T05:56:05.506Z,20.86
2022-09-06T05:58:33.364Z,20.86
2022-09-06T06:01:08.928Z,20.90
2022-09-06T06:03:36.837Z,20.89
2022-09-06T06:06:04.680Z,20.88
2022-09-06T06:08:32.485Z,20.92
2022-09-06T06:11:01.316Z,20.91
2022-09-06T06:13:34.800Z,20.94
2022-09-06T06:16:03.754Z,20.94
2022-09-06T06:18:31.634Z,20.98
2022-09-06T06:21:13.253Z,20.97
2022-09-06T06:23:41.932Z,20.97
2022-09-06T06:26:11.057Z,21.02
2022-09-06T06:28:41.062Z,21.03
2022-09-06T06:31:10.701Z,21.02
2022-09-06T06:33:39.506Z,21.04
2022-09-06T06:36:20.615Z,21.08
2022-09-06T06:38:49.364Z,21.06
2022-09-06T06:41:19.373Z,21.08
2022-09-06T06:43:48.539Z,21.05
2022-09-06T06:46:18.650Z,21.11
2022-09-06T06:48:49.481Z,21.13
2022-09-06T06:51:21.931Z,21.14
2022-09-06T06:53:50.059Z,21.18
2022-09-06T06:56:19.729Z,21.18
2022-09-06T06:58:51.228Z,21.23
2022-09-06T07:01:20.321Z,21.25
2022-09-06T07:03:48.366Z,21.26
2022-09-06T07:06:17.026Z,21.29
2022-09-06T07:08:44.831Z,21.30
2022-09-06T07:11:14.520Z,21.26
2022-09-06T07:13:42.364Z,21.31
2022-09-06T07:16:15.111Z,21.42
2022-09-06T07:18:45.189Z,21.36
2022-09-06T07:24:05.907Z,21.50
2022-09-06T07:26:35.998Z,21.53
2022-09-06T07:29:05.694Z,21.51
2022-09-06T07:34:25.760Z,21.60
2022-09-06T07:36:54.990Z,21.65
2022-09-06T07:39:23.308Z,21.71
2022-09-06T07:41:51.203Z,21.76
2022-09-06T07:44:19.047Z,21.80
2022-09-06T07:46:48.263Z,21.86
2022-09-06T07:49:16.188Z,21.90
2022-09-06T07:51:44.358Z,21.93
2022-09-06T07:54:30.589Z,21.95
2022-09-06T07:56:59.172Z,21.97
2022-09-06T07:59:27.530Z,21.99
2022-09-06T08:01:56.823Z,22.03
2022-09-06T08:04:24.823Z,21.99
2022-09-06T08:09:41.388Z,22.17
2022-09-06T08:12:09.637Z,22.22
2022-09-06T08:14:37.625Z,22.13
2022-09-06T08:17:06.892Z,22.30
2022-09-06T08:19:35.471Z,22.29
2022-09-06T08:22:03.275Z,22.29
2022-09-06T08:24:31.722Z,22.39
2022-09-06T08:26:59.562Z,22.44
2022-09-06T08:29:27.990Z,22.49
2022-09-06T08:31:56.063Z,22.52
2022-09-06T08:34:25.571Z,22.57
2022-09-06T08:36:53.457Z,22.60
2022-09-06T08:39:21.279Z,22.64
2022-09-06T08:41:54.123Z,22.72
2022-09-06T08:47:13.843Z,22.76
2022-09-06T08:49:44.970Z,22.81
2022-09-06T08:52:45.359Z,22.81
2022-09-06T08:55:43.852Z,22.89
2022-09-06T08:58:30.563Z,22.89
2022-09-06T09:01:03.663Z,22.94
2022-09-06T09:03:34.220Z,22.94
2022-09-06T09:06:05.533Z,23.02
2022-09-06T09:08:40.715Z,23.08
2022-09-06T09:11:11.591Z,23.13
2022-09-06T09:13:45.399Z,23.18
2022-09-06T09:16:13.720Z,23.21
2022-09-06T09:18:45.153Z,23.23
2022-09-06T09:21:26.790Z,23.26
2022-09-06T09:23:59.867Z,23.31
2022-09-06T09:26:32.146Z,23.37
2022-09-06T09:29:04.896Z,23.39
2022-09-06T09:31:37.974Z,23.44
2022-09-06T09:34:06.905Z,23.49
2022-09-06T09:36:36.786Z,23.58
2022-09-06T09:39:10.905Z,23.66
2022-09-06T09:41:42.978Z,23.76
2022-09-06T09:44:17.192Z,23.80
2022-09-06T09:46:45.286Z,23.88
2022-09-06T09:49:15.576Z,23.92
2022-09-06T09:51:47.016Z,23.87
2022-09-06T09:54:31.206Z,23.96
2022-09-06T09:56:59.715Z,24.10
2022-09-06T09:59:34.223Z,24.24
2022-09-06T10:02:03.867Z,24.51
2022-09-06T10:07:17.072Z,24.64
2022-09-06T10:09:47.768Z,24.62
2022-09-06T10:12:19.976Z,24.92
2022-09-06T10:14:49.780Z,25.03
2022-09-06T10:17:23.088Z,25.37
2022-09-06T10:19:50.883Z,25.76
2022-09-06T10:22:29.279Z,26.04
2022-09-06T10:25:21.039Z,26.40
2022-09-06T10:28:11.032Z,26.67
2022-09-06T10:30:45.940Z,27.08
2022-09-06T10:33:26.212Z,27.39
2022-09-06T10:35:55.851Z,27.39
2022-09-06T10:38:38.475Z,27.59
2022-09-06T10:41:26.092Z,27.67
2022-09-06T10:44:01.121Z,27.81
2022-09-06T10:46:30.177Z,28.15
2022-09-06T10:48:58.751Z,28.15
2022-09-06T10:51:33.626Z,28.23
2022-09-06T10:54:08.517Z,28.45
2022-09-06T10:56:43.375Z,28.61
2022-09-06T11:02:11.969Z,29.05
2022-09-06T11:07:31.799Z,29.38
2022-09-06T11:10:05.115Z,29.64
2022-09-06T11:12:40.864Z,29.77
2022-09-06T11:15:12.671Z,29.83
2022-09-06T11:17:47.099Z,30.05
2022-09-06T11:20:23.219Z,30.12
2022-09-06T11:23:20.209Z,30.31
2022-09-06T11:26:21.035Z,30.68
2022-09-06T11:28:54.787Z,30.99
2022-09-06T11:34:21.855Z,31.27
2022-09-06T11:36:51.295Z,31.36
2022-09-06T11:43:03.119Z,31.55
2022-09-06T11:45:44.207Z,31.70
2022-09-06T11:48:37.916Z,31.81
2022-09-06T11:51:10.891Z,32.01
2022-09-06T11:54:06.231Z,32.11
2022-09-06T11:56:40.423Z,32.19
2022-09-06T11:59:21.380Z,32.29
2022-09-06T12:02:02.668Z,32.52
2022-09-06T12:05:09.312Z,32.79
2022-09-06T12:07:38.799Z,32.75
2022-09-06T12:10:39.592Z,32.96
2022-09-06T12:13:34.745Z,33.07
2022-09-06T12:16:02.674Z,33.04
2022-09-06T12:18:58.192Z,32.96
2022-09-06T12:21:38.320Z,32.47
2022-09-06T12:24:07.595Z,32.94
2022-09-06T12:26:55.280Z,32.90
2022-09-06T12:29:26.242Z,33.05
2022-09-06T12:31:55.438Z,33.22
2022-09-06T12:34:28.024Z,33.45
2022-09-06T12:36:59.461Z,33.23
2022-09-06T12:39:27.503Z,33.35
2022-09-06T12:41:58.369Z,33.29
2022-09-06T12:44:32.615Z,33.48
2022-09-06T12:47:12.230Z,33.47
2022-09-06T12:49:41.622Z,33.70
2022-09-06T12:52:12.127Z,33.78
2022-09-06T12:54:49.375Z,33.93
2022-09-06T12:57:22.386Z,33.90
2022-09-06T12:59:55.109Z,33.75
2022-09-06T13:02:31.407Z,33.79
2022-09-06T13:05:06.412Z,33.80
2022-09-06T13:07:36.288Z,33.68
2022-09-06T13:10:05.129Z,33.57
2022-09-06T13:12:34.633Z,33.39
2022-09-06T13:15:07.807Z,33.29
2022-09-06T13:17:37.924Z,33.38
2022-09-06T13:20:14.715Z,33.40
2022-09-06T13:22:45.822Z,33.36
2022-09-06T13:25:20.349Z,33.24
2022-09-06T13:27:51.265Z,32.75
2022-09-06T13:30:37.714Z,32.16
2022-09-06T13:33:07.639Z,31.74
2022-09-06T13:35:39.021Z,31.40
2022-09-06T13:38:30.842Z,31.19
2022-09-06T13:41:16.599Z,31.33
2022-09-06T13:43:47.669Z,31.64
2022-09-06T13:46:16.098Z,31.94
2022-09-06T13:48:44.641Z,32.05
2022-09-06T13:51:14.088Z,32.13
2022-09-06T13:53:42.216Z,32.20
2022-09-06T13:56:11.903Z,32.17
2022-09-06T13:58:39.830Z,32.10
2022-09-06T14:01:09.856Z,32.05
2022-09-06T14:03:41.767Z,32.01
2022-09-06T14:06:10.546Z,31.88
2022-09-06T14:09:03.189Z,31.72
2022-09-06T14:11:30.319Z,31.67
2022-09-06T14:14:00.853Z,31.68
2022-09-06T14:16:28.711Z,31.70
2022-09-06T14:18:57.904Z,31.61
2022-09-06T14:21:25.896Z,31.55
2022-09-06T14:23:55.394Z,31.47
2022-09-06T14:26:24.173Z,31.31
2022-09-06T14:28:52.184Z,31.12
2022-09-06T14:31:22.084Z,30.92
2022-09-06T14:33:49.987Z,30.47
2022-09-06T14:36:20.455Z,30.23
2022-09-06T14:38:48.901Z,30.24
2022-09-06T14:41:20.148Z,30.29
2022-09-06T14:43:51.109Z,30.32
2022-09-06T14:46:20.544Z,30.31
2022-09-06T14:48:49.287Z,30.18
2022-09-06T14:51:21.779Z,30.06
2022-09-06T14:53:52.701Z,30.08
2022-09-06T14:56:22.939Z,30.07
2022-09-06T14:58:51.258Z,29.95
2022-09-06T15:01:20.987Z,29.97
2022-09-06T15:03:51.743Z,29.92
2022-09-06T15:06:21.910Z,29.96
2022-09-06T15:08:50.006Z,29.91
2022-09-06T15:11:30.779Z,29.90
2022-09-06T15:13:59.126Z,29.95
2022-09-06T15:16:26.975Z,29.97
2022-09-06T15:18:55.247Z,29.86
2022-09-06T15:21:24.178Z,29.82
2022-09-06T15:23:52.650Z,29.84
2022-09-06T15:26:20.545Z,29.73
2022-09-06T15:28:49.980Z,29.83
2022-09-06T15:31:19.339Z,29.87
2022-09-06T15:33:48.776Z,29.81
2022-09-06T15:36:17.472Z,29.83
2022-09-06T15:38:47.403Z,29.79
2022-09-06T15:41:17.803Z,29.81
2022-09-06T15:43:47.373Z,29.70
2022-09-06T15:46:17.609Z,29.73
2022-09-06T15:48:47.169Z,29.70
2022-09-06T15:51:17.114Z,29.60
2022-09-06T15:53:46.181Z,29.46
2022-09-06T15:56:15.172Z,29.43
2022-09-06T15:58:43.055Z,29.35
2022-09-06T16:01:12.973Z,29.35
2022-09-06T16:03:44.023Z,29.29
2022-09-06T16:06:29.881Z,29.30
2022-09-06T16:08:59.984Z,29.13
2022-09-06T16:11:29.260Z,28.94
2022-09-06T16:13:57.598Z,29.04
2022-09-06T16:16:25.732Z,28.96
2022-09-06T16:18:55.029Z,28.96
2022-09-06T16:21:24.813Z,29.00
2022-09-06T16:23:54.537Z,28.83
2022-09-06T16:26:22.776Z,28.94
2022-09-06T16:28:51.947Z,28.81
2022-09-06T16:31:21.173Z,28.80
2022-09-06T16:33:50.206Z,28.73
2022-09-06T16:36:19.915Z,28.74
2022-09-06T16:38:48.464Z,28.67
2022-09-06T16:41:19.899Z,28.56
2022-09-06T16:43:49.247Z,28.52
2022-09-06T16:46:17.636Z,28.62
2022-09-06T16:48:51.791Z,28.52
2022-09-06T16:51:22.986Z,28.37
2022-09-06T16:53:51.953Z,28.27
2022-09-06T16:56:21.977Z,28.20
2022-09-06T16:58:52.367Z,28.09
2022-09-06T17:01:20.906Z,28.07
2022-09-06T17:03:49.232Z,27.95
2022-09-06T17:06:17.932Z,27.85
2022-09-06T17:08:47.606Z,27.82
2022-09-06T17:11:17.720Z,27.72
2022-09-06T17:13:47.626Z,27.62
2022-09-06T17:16:33.223Z,27.51
2022-09-06T17:19:02.389Z,27.44
2022-09-06T17:21:31.017Z,27.39
2022-09-06T17:24:04.569Z,27.36
2022-09-06T17:26:34.232Z,27.35
2022-09-06T17:29:02.536Z,27.34
2022-09-06T17:31:30.586Z,27.27
2022-09-06T17:33:59.566Z,27.23
2022-09-06T17:36:30.448Z,27.21
2022-09-06T17:39:05.217Z,27.19
2022-09-06T17:41:37.676Z,27.12
2022-09-06T17:44:05.918Z,27.14
2022-09-06T17:46:33.962Z,27.08
2022-09-06T17:49:01.993Z,27.04
2022-09-06T17:51:29.927Z,27.01
2022-09-06T17:53:58.343Z,26.97
2022-09-06T17:56:28.985Z,26.93
2022-09-06T17:58:59.335Z,26.88
2022-09-06T18:01:30.128Z,26.81
2022-09-06T18:03:58.395Z,26.82
2022-09-06T18:06:28.213Z,26.72
2022-09-06T18:08:58.048Z,26.66
2022-09-06T18:11:29.638Z,26.62
2022-09-06T18:13:59.787Z,26.60
2022-09-06T18:16:29.031Z,26.62
2022-09-06T18:18:58.333Z,26.62
2022-09-06T18:21:27.959Z,26.62
2022-09-06T18:23:59.521Z,26.57
2022-09-06T18:26:28.959Z,26.54
2022-09-06T18:28:57.236Z,26.49
2022-09-06T18:31:28.107Z,26.39
2022-09-06T18:34:00.881Z,26.39
2022-09-06T18:36:32.208Z,26.42
2022-09-06T18:39:05.040Z,26.44
2022-09-06T18:41:52.359Z,26.45
2022-09-06T18:44:20.658Z,26.45
2022-09-06T18:46:50.636Z,26.40
2022-09-06T18:49:23.045Z,26.38
2022-09-06T18:51:51.131Z,26.41
2022-09-06T18:54:29.427Z,26.39
2022-09-06T18:56:59.413Z,26.36
2022-09-06T18:59:27.590Z,26.20
2022-09-06T19:01:55.922Z,26.26
2022-09-06T19:04:27.040Z,26.23
2022-09-06T19:06:55.284Z,26.25
2022-09-06T19:09:28.958Z,26.27
2022-09-06T19:11:58.407Z,26.32
2022-09-06T19:14:26.469Z,26.35
2022-09-06T19:16:55.040Z,26.34
2022-09-06T19:19:23.395Z,26.34
2022-09-06T19:21:51.792Z,26.33
2022-09-06T19:24:22.814Z,26.36
2022-09-06T19:26:51.735Z,26.28
2022-09-06T19:29:21.524Z,26.32
2022-09-06T19:31:50.191Z,26.25
2022-09-06T19:34:24.462Z,26.28
2022-09-06T19:36:55.417Z,26.29
2022-09-06T19:39:23.805Z,26.32
2022-09-06T19:41:51.644Z,26.29
2022-09-06T19:44:23.618Z,26.31
2022-09-06T19:46:51.587Z,26.27
2022-09-06T19:49:20.362Z,26.28
2022-09-06T19:51:50.685Z,26.25
2022-09-06T19:54:18.710Z,26.23
2022-09-06T19:56:47.291Z,26.18
2022-09-06T19:59:16.515Z,26.11
2022-09-06T20:01:47.620Z,26.21
2022-09-06T20:04:16.568Z,26.13
2022-09-06T20:06:44.510Z,26.09
2022-09-06T20:09:13.208Z,26.12
2022-09-06T20:11:42.062Z,26.10
2022-09-06T20:14:10.638Z,26.12
2022-09-06T20:16:41.786Z,26.09
2022-09-06T20:19:14.483Z,26.08
2022-09-06T20:21:42.894Z,25.96
2022-09-06T20:24:10.760Z,26.06
2022-09-06T20:26:38.768Z,26.04
2022-09-06T20:29:07.120Z,26.01
2022-09-06T20:31:36.609Z,26.02
2022-09-06T20:34:06.487Z,26.01
2022-09-06T20:36:36.130Z,25.99
2022-09-06T20:39:04.923Z,25.94
2022-09-06T20:41:33.723Z,25.90
2022-09-06T20:44:01.716Z,25.92
2022-09-06T20:46:32.001Z,25.89
2022-09-06T20:49:04.116Z,25.91
2022-09-06T20:51:33.340Z,25.89
2022-09-06T20:54:04.635Z,25.87
2022-09-06T20:56:34.681Z,25.77
2022-09-06T20:59:05.409Z,25.64
2022-09-06T21:01:36.364Z,25.61
2022-09-06T21:04:06.628Z,25.50
2022-09-06T21:06:36.487Z,25.44
2022-09-06T21:09:07.596Z,25.27
2022-09-06T21:11:35.670Z,25.39
2022-09-06T21:14:04.026Z,25.34
2022-09-06T21:16:32.392Z,25.35
2022-09-06T21:19:01.648Z,25.35
2022-09-06T21:21:31.306Z,25.38
2022-09-06T21:24:00.546Z,25.34
2022-09-06T21:26:30.459Z,25.31
2022-09-06T21:28:58.918Z,25.31
2022-09-06T21:31:28.668Z,25.26
2022-09-06T21:33:58.887Z,25.26
2022-09-06T21:36:30.043Z,25.26
2022-09-06T21:39:00.118Z,25.25
2022-09-06T21:41:30.777Z,25.28
2022-09-06T21:44:00.886Z,25.24
2022-09-06T21:46:33.230Z,25.29
2022-09-06T21:49:02.655Z,25.30
2022-09-06T21:51:30.959Z,25.31
2022-09-06T21:53:59.314Z,25.34
2022-09-06T21:56:28.883Z,25.35
2022-09-06T21:58:59.815Z,25.36
2022-09-06T22:01:29.685Z,25.35
2022-09-06T22:03:57.604Z,25.36
2022-09-06T22:06:28.746Z,25.27
2022-09-06T22:08:57.618Z,25.35
2022-09-06T22:11:27.335Z,25.35
2022-09-06T22:13:59.231Z,25.36
2022-09-06T22:16:28.480Z,25.36
2022-09-06T22:18:56.445Z,25.36
2022-09-06T22:21:24.725Z,25.36
2022-09-06T22:23:53.418Z,25.31
2022-09-06T22:26:22.147Z,25.29
2022-09-06T22:28:54.831Z,25.28
2022-09-06T22:31:25.192Z,25.25
2022-09-06T22:33:53.153Z,25.21
2022-09-06T22:36:21.412Z,25.18
2022-09-06T22:38:52.943Z,25.17
2022-09-06T22:41:20.866Z,25.11
2022-09-06T22:43:48.715Z,25.13
2022-09-06T22:46:16.646Z,25.10
2022-09-06T22:48:45.907Z,25.06
2022-09-06T22:51:13.716Z,25.07
2022-09-06T22:53:41.560Z,25.08
2022-09-06T22:56:09.423Z,25.05
2022-09-06T22:58:37.302Z,25.06
2022-09-06T23:01:10.439Z,25.04
2022-09-06T23:03:38.977Z,25.03
2022-09-06T23:06:08.835Z,24.86
2022-09-06T23:08:38.184Z,24.99
2022-09-06T23:11:08.139Z,24.99
2022-09-06T23:13:36.138Z,24.99
2022-09-06T23:16:05.205Z,24.91
2022-09-06T23:18:33.370Z,24.93
2022-09-06T23:21:05.661Z,24.90
2022-09-06T23:23:35.206Z,24.49
2022-09-06T23:26:07.960Z,23.54
2022-09-06T23:28:36.667Z,22.85
2022-09-06T23:31:05.858Z,22.14
2022-09-06T23:33:35.837Z,21.06
2022-09-06T23:36:04.330Z,20.24
2022-09-06T23:38:35.023Z,20.06
2022-09-06T23:41:03.197Z,20.15
2022-09-06T23:43:31.081Z,20.14
2022-09-06T23:45:59.350Z,20.00
2022-09-06T23:48:27.262Z,20.11
2022-09-06T23:50:55.171Z,20.14
2022-09-06T23:53:23.386Z,20.08
2022-09-06T23:55:52.798Z,20.09
2022-09-06T23:58:20.730Z,20.27
